Time;durP1;ratioP1;P1;durP2;ratioP2;P2;SDS_P1;SDS_P2;PMS_P1;PMS_P2;Temp;Humidity;BMP_temperature;BMP_pressure;BME280_temperature;BME280_humidity;BME280_pressure;Samples;Min_cycle;Max_cycle;Signal;HPM_P1;HPM_P2
2022/01/09 00:09:06;;;;;;;41.10;7.95;;;;;;;;;;4315681;33;20086;-83
2022/01/09 00:20:48;;;;;;;;;;;;;;;;;;;;;
2022/01/09 00:23:45;;;;;;;50.88;8.13;;;;;;;;;;4322509;33;20032;-84
2022/01/09 00:38:40;;;;;;;51.58;6.87;;;;;;;;;;4313400;33;20358;-84
2022/01/09 01:03:15;;;;;;;46.17;7.75;;;;;;;;;;4319374;33;20062;-84
2022/01/09 01:09:09;;;;;;;;;;;;;;;;;;;;;
2022/01/09 01:12:24;;;;;;;31.80;6.47;;;;;;;;;;4331405;33;20020;-84
2022/01/09 01:30:46;;;;;;;;;;;;;;;;;;;;;
2022/01/09 01:40:42;;;;;;;;;;;;;;;;;;;;;
2022/01/09 03:07:56;;;;;;;26.95;4.55;;;;;;;;;;4191246;34;20070;-83
2022/01/09 03:14:03;;;;;;;;;;;;;;;;;;;;;
2022/01/09 03:20:10;;;;;;;;;;;;;;;;;;;;;
2022/01/09 04:00:36;;;;;;;21.42;4.50;;;;;;;;;;4214908;34;20049;-84
2022/01/09 04:03:03;;;;;;;21.30;4.35;;;;;;;;;;4263307;33;20029;-84
2022/01/09 04:07:00;;;;;;;;;;;;;;;;;;;;;
2022/01/09 04:09:29;;;;;;;22.17;4.40;;;;;;;;;;4338341;33;20061;-84
2022/01/09 04:12:02;;;;;;;20.20;3.72;;;;;;;;;;4330675;33;20024;-84
2022/01/09 04:14:36;;;;;;;11.73;2.87;;;;;;;;;;4331630;33;20141;-84
2022/01/09 04:20:37;;;;;;;22.23;3.87;;;;;;;;;;4359940;33;20069;-84
2022/01/09 04:23:42;;;;;;;;;;;;;;;;;;;;;
2022/01/09 04:33:11;;;;;;;18.17;3.58;;;;;;;;;;4301258;33;20120;-84
2022/01/09 05:00:51;;;;;;;;;;;;;;;;;;;;;
2022/01/09 05:08:58;;;;;;;17.75;3.78;;;;;;;;;;4219009;34;20052;-83
2022/01/09 05:14:43;;;;;;;;;;;;;;;;;;;;;
2022/01/09 05:53:03;;;;;;;;;;;;;;;;;;;;;
2022/01/09 07:13:06;;;;;;;;;;;;;;;;;;;;;
2022/01/09 08:29:44;;;;;;;;;;;;;;;;;;;;;
2022/01/09 08:49:42;;;;;;;19.95;3.95;;;;;;;;;;4231664;34;20094;-82
2022/01/09 09:40:28;;;;;;;17.67;4.25;;;;;;;;;;4330966;33;20077;-83
2022/01/09 09:43:16;;;;;;;15.60;3.72;;;;;;;;;;4330820;33;20526;-83
2022/01/09 09:52:18;;;;;;;17.60;3.40;;;;;;;;;;4316431;33;20084;-83
2022/01/09 10:10:15;;;;;;;;;;;;;;;;;;;;;
2022/01/09 10:13:00;;;;;;;;;;;;;;;;;;4286955;33;20351;-82
2022/01/09 10:27:32;;;;;;;;;;;;;;;;;;;;;
2022/01/09 10:36:04;;;;;;;;;;;;;;;;;;;;;
2022/01/09 10:38:56;;;;;;;;;;;;;;;;;;;;;
2022/01/09 10:50:48;;;;;;;10.38;2.72;;;;;;;;;;4323323;33;20084;-80
2022/01/09 11:02:45;;;;;;;;;;;;;;;;;;;;;
2022/01/09 11:05:35;;;;;;;16.27;2.85;;;;;;;;;;4330473;33;20054;-81
2022/01/09 11:14:05;;;;;;;21.83;4.10;;;;;;;;;;4338722;33;20053;-81
2022/01/09 11:16:33;;;;;;;22.02;5.32;;;;;;;;;;4361210;32;20447;-80
2022/01/09 11:42:28;;;;;;;24.63;5.68;;;;;;;;;;4384787;32;20040;-81
2022/01/09 11:45:21;;;;;;;21.85;3.75;;;;;;;;;;4377186;32;20007;-80
2022/01/09 11:57:43;;;;;;;22.65;3.92;;;;;;;;;;4285498;33;20038;-81
2022/01/09 12:00:39;;;;;;;14.25;3.78;;;;;;;;;;4285174;33;20101;-81
2022/01/09 12:03:23;;;;;;;17.75;4.30;;;;;;;;;;4331529;32;20057;-81
2022/01/09 12:09:24;;;;;;;17.30;3.78;;;;;;;;;;4355495;32;20050;-81
2022/01/09 12:12:18;;;;;;;19.10;5.05;;;;;;;;;;4373757;32;20404;-81
2022/01/09 12:21:05;;;;;;;18.10;4.10;;;;;;;;;;4343889;33;20035;-82
2022/01/09 12:24:08;;;;;;;15.43;3.90;;;;;;;;;;4371846;32;20038;-82
2022/01/09 12:33:26;;;;;;;;;;;;;;;;;;;;;
2022/01/09 12:46:20;;;;;;;14.65;5.47;;;;;;;;;;4300083;33;20497;-80
2022/01/09 12:48:37;;;;;;;18.05;3.28;;;;;;;;;;4295911;33;20060;-80
2022/01/09 12:51:34;;;;;;;;;;;;;;;;;;;;;
2022/01/09 12:54:37;;;;;;;17.85;5.12;;;;;;;;;;4299880;33;20040;-80
2022/01/09 12:57:42;;;;;;;;;;;;;;;;;;;;;
2022/01/09 13:03:21;;;;;;;16.37;3.60;;;;;;;;;;4328608;33;20075;-81
2022/01/09 13:05:58;;;;;;;14.65;3.67;;;;;;;;;;4340326;33;20050;-81
2022/01/09 13:11:31;;;;;;;20.15;3.83;;;;;;;;;;4349597;32;20101;-79
2022/01/09 13:26:21;;;;;;;24.75;3.45;;;;;;;;;;4364024;32;20073;-80
2022/01/09 13:32:21;;;;;;;13.65;4.93;;;;;;;;;;4363813;32;20388;-81
2022/01/09 13:34:46;;;;;;;15.68;3.50;;;;;;;;;;4368634;32;20067;-81
2022/01/09 13:40:37;;;;;;;24.92;3.58;;;;;;;;;;4306060;33;19946;-80
2022/01/09 13:43:46;;;;;;;19.70;3.75;;;;;;;;;;4378677;32;20027;-81
2022/01/09 13:49:27;;;;;;;24.95;4.90;;;;;;;;;;4388625;32;20057;-81
2022/01/09 13:51:53;;;;;;;20.52;3.75;;;;;;;;;;4377108;32;20046;-81
2022/01/09 13:54:18;;;;;;;;;;;;;;;;;;4378562;32;20127;-80
2022/01/09 13:56:44;;;;;;;14.77;3.78;;;;;;;;;;4377227;32;20275;-80
2022/01/09 13:59:09;;;;;;;;;;;;;;;;;;4377749;32;20525;-80
2022/01/09 14:04:57;;;;;;;18.50;3.20;;;;;;;;;;4377118;32;20058;-80
2022/01/09 14:07:40;;;;;;;;;;;;;;;;;;;;;
2022/01/09 14:13:42;;;;;;;31.83;4.40;;;;;;;;;;4379685;32;20097;-78
2022/01/09 14:19:14;;;;;;;16.50;3.95;;;;;;;;;;4388640;32;20078;-79
2022/01/09 14:25:15;;;;;;;20.45;3.92;;;;;;;;;;4359549;32;20057;-77
2022/01/09 14:30:48;;;;;;;20.60;5.15;;;;;;;;;;4382180;32;20502;-77
2022/01/09 14:33:31;;;;;;;20.58;5.72;;;;;;;;;;4384456;32;20058;-77
2022/01/09 14:42:11;;;;;;;23.10;3.85;;;;;;;;;;4298521;33;20132;-79
2022/01/09 14:50:47;;;;;;;15.90;3.75;;;;;;;;;;4390770;32;20061;-77
2022/01/09 14:53:29;;;;;;;16.80;5.12;;;;;;;;;;4384781;32;20106;-79
2022/01/09 14:55:57;;;;;;;16.23;3.90;;;;;;;;;;4375669;32;20034;-79
2022/01/09 14:58:36;;;;;;;;;;;;;;;;;;;;;
2022/01/09 15:01:28;;;;;;;21.75;4.22;;;;;;;;;;4390913;32;20424;-79
2022/01/09 15:03:55;;;;;;;17.70;3.87;;;;;;;;;;4378474;32;20468;-78
2022/01/09 15:06:27;;;;;;;22.60;3.83;;;;;;;;;;4378534;32;20034;-78
2022/01/09 15:09:10;;;;;;;21.60;4.40;;;;;;;;;;4377479;32;20081;-77
2022/01/09 15:11:41;;;;;;;15.90;3.83;;;;;;;;;;4388408;32;20064;-77
2022/01/09 15:14:07;;;;;;;25.48;4.62;;;;;;;;;;4375384;32;20070;-77
2022/01/09 15:16:32;;;;;;;;;;;;;;;;;;4375990;32;20368;-78
2022/01/09 15:22:08;;;;;;;21.55;4.55;;;;;;;;;;4344039;33;20036;-78
2022/01/09 15:25:22;;;;;;;22.40;4.53;;;;;;;;;;4383170;32;20031;-78
2022/01/09 15:27:19;;;;;;;16.52;4.22;;;;;;;;;;4366508;32;20051;-78
2022/01/09 15:30:04;;;;;;;;;;;;;;;;;;4375586;32;20078;-78
2022/01/09 15:35:44;;;;;;;16.73;4.12;;;;;;;;;;4361190;32;20093;-77
2022/01/09 15:45:08;;;;;;;;;;;;;;;;;;;;;
2022/01/09 15:48:01;;;;;;;;;;;;;;;;;;;;;
2022/01/09 15:53:35;;;;;;;18.40;4.28;;;;;;;;;;4285284;33;20075;-77
2022/01/09 16:08:39;;;;;;;25.62;5.05;;;;;;;;;;4228050;33;20104;-77
2022/01/09 16:11:07;;;;;;;28.40;5.05;;;;;;;;;;4240569;33;20071;-77
2022/01/09 16:13:36;;;;;;;27.48;4.28;;;;;;;;;;4291288;33;20032;-77
2022/01/09 16:16:05;;;;;;;15.60;3.60;;;;;;;;;;4361884;32;20090;-78
2022/01/09 16:18:30;;;;;;;19.12;4.82;;;;;;;;;;4366473;32;20073;-78
2022/01/09 16:20:57;;;;;;;;;;;;;;;;;;4360598;33;20027;-78
2022/01/09 16:23:22;;;;;;;21.17;4.90;;;;;;;;;;4360839;33;20223;-78
2022/01/09 16:25:58;;;;;;;;;;;;;;;;;;4362738;32;20140;-78
2022/01/09 16:28:24;;;;;;;22.35;5.05;;;;;;;;;;4362062;32;19998;-77
2022/01/09 16:31:12;;;;;;;;;;;;;;;;;;4363944;32;20364;-78
2022/01/09 16:33:41;;;;;;;18.10;5.80;;;;;;;;;;4378459;32;19941;-78
2022/01/09 16:36:09;;;;;;;20.95;5.72;;;;;;;;;;4371420;32;20061;-78
2022/01/09 16:38:41;;;;;;;22.50;5.20;;;;;;;;;;4362856;32;20142;-77
2022/01/09 16:44:55;;;;;;;24.48;5.35;;;;;;;;;;4328502;33;20086;-78
2022/01/09 16:47:23;;;;;;;19.48;5.18;;;;;;;;;;4345016;32;20392;-78
2022/01/09 16:49:51;;;;;;;26.83;5.55;;;;;;;;;;4376396;32;20066;-78
2022/01/09 16:52:37;;;;;;;28.17;6.07;;;;;;;;;;4380802;32;20441;-78
2022/01/09 16:55:06;;;;;;;18.20;5.13;;;;;;;;;;4377870;32;20043;-78
2022/01/09 16:57:40;;;;;;;17.75;4.40;;;;;;;;;;4377927;32;20496;-78
2022/01/09 17:00:06;;;;;;;20.12;5.70;;;;;;;;;;4377883;32;20105;-78
2022/01/09 17:02:31;;;;;;;;;;;;;;;;;;4377595;32;20031;-78
2022/01/09 17:08:16;;;;;;;25.42;5.25;;;;;;;;;;4385800;32;20564;-78
2022/01/09 17:13:51;;;;;;;29.17;6.30;;;;;;;;;;4389033;32;20076;-78
2022/01/09 17:16:19;;;;;;;22.13;5.37;;;;;;;;;;4393557;32;20341;-78
2022/01/09 17:19:19;;;;;;;21.83;5.25;;;;;;;;;;4388278;32;20053;-78
2022/01/09 17:21:47;;;;;;;19.55;5.97;;;;;;;;;;4391961;32;20450;-78
2022/01/09 17:24:12;;;;;;;29.27;7.43;;;;;;;;;;4378203;32;20030;-78
2022/01/09 17:26:42;;;;;;;;;;;;;;;;;;4393193;32;20057;-78
2022/01/09 17:29:40;;;;;;;27.77;7.22;;;;;;;;;;4378038;32;19945;-78
2022/01/09 17:46:16;;;;;;;23.48;6.40;;;;;;;;;;4377250;32;20084;-78
2022/01/09 17:48:51;;;;;;;;;;;;;;;;;;;;;
2022/01/09 17:54:36;;;;;;;;;;;;;;;;;;;;;
2022/01/09 17:57:09;;;;;;;17.55;5.35;;;;;;;;;;4363021;32;20047;-78
2022/01/09 18:00:00;;;;;;;21.45;5.97;;;;;;;;;;4376362;32;20050;-78
2022/01/09 18:02:39;;;;;;;24.85;6.25;;;;;;;;;;4376755;32;20397;-78
2022/01/09 18:05:15;;;;;;;;;;;;;;;;;;;;;
2022/01/09 18:07:41;;;;;;;34.45;11.57;;;;;;;;;;4372908;32;20430;-79
2022/01/09 18:10:06;;;;;;;;;;;;;;;;;;4376684;32;20057;-78
2022/01/09 18:12:35;;;;;;;28.20;9.73;;;;;;;;;;4376319;32;20311;-78
2022/01/09 18:15:19;;;;;;;48.13;17.80;;;;;;;;;;4361905;32;20038;-78
2022/01/09 18:17:59;;;;;;;31.08;11.55;;;;;;;;;;4376749;32;20061;-79
2022/01/09 18:20:38;;;;;;;;;;;;;;;;;;;;;
2022/01/09 18:23:36;;;;;;;53.22;21.58;;;;;;;;;;4376240;32;20065;-78
2022/01/09 18:29:24;;;;;;;43.78;14.98;;;;;;;;;;4371617;32;20139;-78
2022/01/09 18:32:17;;;;;;;31.50;9.75;;;;;;;;;;4362945;32;20063;-78
2022/01/09 18:34:46;;;;;;;32.08;9.85;;;;;;;;;;4362865;32;20069;-78
2022/01/09 18:37:48;;;;;;;29.67;8.80;;;;;;;;;;4371809;32;20035;-78
2022/01/09 18:43:18;;;;;;;22.95;8.82;;;;;;;;;;4347831;32;20134;-79
2022/01/09 18:45:46;;;;;;;;;;;;;;;;;;4333158;33;20044;-79
2022/01/09 18:48:12;;;;;;;26.58;10.52;;;;;;;;;;4330908;33;19943;-78
2022/01/09 18:56:38;;;;;;;28.40;9.35;;;;;;;;;;4301121;33;20102;-80
2022/01/09 18:59:19;;;;;;;30.98;10.55;;;;;;;;;;4342274;33;20386;-79
2022/01/09 19:04:51;;;;;;;36.47;10.00;;;;;;;;;;4329009;33;20103;-78
2022/01/09 19:07:23;;;;;;;31.02;11.55;;;;;;;;;;4340082;33;20031;-78
2022/01/09 19:12:53;;;;;;;28.52;10.73;;;;;;;;;;4343363;33;20098;-78
2022/01/09 19:15:28;;;;;;;;;;;;;;;;;;;;;
2022/01/09 19:18:24;;;;;;;;;;;;;;;;;;;;;
2022/01/09 19:21:35;;;;;;;;;;;;;;;;;;;;;
2022/01/09 19:24:01;;;;;;;29.63;12.05;;;;;;;;;;4300092;33;20063;-78
2022/01/09 19:26:55;;;;;;;;;;;;;;;;;;;;;
2022/01/09 19:35:58;;;;;;;;;;;;;;;;;;;;;
2022/01/09 19:38:32;;;;;;;29.40;11.20;;;;;;;;;;4256012;33;20030;-77
2022/01/09 19:41:00;;;;;;;32.25;13.82;;;;;;;;;;4242488;33;20433;-78
2022/01/09 19:43:26;;;;;;;43.17;16.52;;;;;;;;;;4253552;33;20054;-77
2022/01/09 19:45:51;;;;;;;;;;;;;;;;;;4328543;33;20032;-78
2022/01/09 19:48:19;;;;;;;26.40;9.65;;;;;;;;;;4329510;33;19954;-77
2022/01/09 19:50:44;;;;;;;25.62;7.62;;;;;;;;;;4329705;33;20378;-78
2022/01/09 19:53:19;;;;;;;;;;;;;;;;;;4329129;33;20020;-79
2022/01/09 19:55:53;;;;;;;34.75;8.27;;;;;;;;;;4337011;33;19939;-79
2022/01/09 19:58:19;;;;;;;25.48;8.13;;;;;;;;;;4332669;33;20082;-79
2022/01/09 20:00:53;;;;;;;;;;;;;;;;;;4345437;33;20381;-79
2022/01/09 20:03:18;;;;;;;33.17;10.63;;;;;;;;;;4344300;33;20213;-79
2022/01/09 20:05:44;;;;;;;;;;;;;;;;;;4345987;33;20024;-79
2022/01/09 20:08:18;;;;;;;22.90;8.10;;;;;;;;;;4345998;33;19938;-78
2022/01/09 20:10:54;;;;;;;27.02;7.80;;;;;;;;;;4324093;33;20019;-79
2022/01/09 20:13:20;;;;;;;32.75;7.70;;;;;;;;;;4330829;33;20054;-79
2022/01/09 20:15:45;;;;;;;;;;;;;;;;;;4329480;33;20445;-79
2022/01/09 20:18:10;;;;;;;28.20;8.60;;;;;;;;;;4331009;33;19939;-79
2022/01/09 20:20:35;;;;;;;;;;;;;;;;;;4321904;33;20020;-78
2022/01/09 20:23:09;;;;;;;29.30;9.88;;;;;;;;;;4315832;33;20270;-78
2022/01/09 20:25:35;;;;;;;33.83;10.63;;;;;;;;;;4316328;33;20041;-78
2022/01/09 20:28:08;;;;;;;33.70;10.05;;;;;;;;;;4315424;33;20078;-78
2022/01/09 20:30:36;;;;;;;36.58;11.77;;;;;;;;;;4315808;33;20016;-78
2022/01/09 20:33:04;;;;;;;30.88;10.85;;;;;;;;;;4314823;33;20043;-78
2022/01/09 20:35:43;;;;;;;37.08;11.55;;;;;;;;;;4315031;33;20399;-78
2022/01/09 20:38:26;;;;;;;33.08;10.48;;;;;;;;;;4315749;33;20032;-78
2022/01/09 20:40:55;;;;;;;36.28;12.02;;;;;;;;;;4314628;33;20032;-78
2022/01/09 20:43:24;;;;;;;41.15;12.30;;;;;;;;;;4315699;33;20066;-78
2022/01/09 20:45:58;;;;;;;35.15;11.25;;;;;;;;;;4328624;33;20090;-78
2022/01/09 20:48:29;;;;;;;32.78;12.07;;;;;;;;;;4344436;33;20050;-77
2022/01/09 20:51:06;;;;;;;30.05;12.37;;;;;;;;;;4316109;33;20111;-78
2022/01/09 20:53:37;;;;;;;31.92;11.80;;;;;;;;;;4316118;33;20107;-78
2022/01/09 20:56:03;;;;;;;41.00;12.30;;;;;;;;;;4319185;33;20021;-78
2022/01/09 20:58:28;;;;;;;;;;;;;;;;;;4330866;33;20434;-77
2022/01/09 21:01:19;;;;;;;40.42;15.34;;;;;;;;;;4330836;33;20002;-77
2022/01/09 21:03:44;;;;;;;50.38;14.38;;;;;;;;;;4331183;33;20051;-78
2022/01/09 21:06:25;;;;;;;;;;;;;;;;;;4330443;33;20028;-77
2022/01/09 21:11:57;;;;;;;32.95;13.00;;;;;;;;;;4323497;33;20067;-78
2022/01/09 21:14:31;;;;;;;37.22;15.45;;;;;;;;;;4330685;33;20036;-78
2022/01/09 21:17:02;;;;;;;39.63;11.70;;;;;;;;;;4333405;33;20016;-78
2022/01/09 21:19:31;;;;;;;26.02;11.90;;;;;;;;;;4334070;33;20394;-78
2022/01/09 21:22:22;;;;;;;32.22;11.90;;;;;;;;;;4338401;33;20032;-78
2022/01/09 21:24:50;;;;;;;40.25;12.00;;;;;;;;;;4339881;33;20028;-78
2022/01/09 21:27:16;;;;;;;33.60;10.75;;;;;;;;;;4326746;33;20050;-78
2022/01/09 21:33:10;;;;;;;33.83;11.15;;;;;;;;;;4305430;33;20129;-78
2022/01/09 21:36:01;;;;;;;28.38;10.43;;;;;;;;;;4302096;33;20067;-78
2022/01/09 21:38:32;;;;;;;30.08;10.52;;;;;;;;;;4328286;33;20024;-78
2022/01/09 21:41:15;;;;;;;29.45;10.43;;;;;;;;;;4332942;33;20020;-77
2022/01/09 21:43:45;;;;;;;30.00;10.02;;;;;;;;;;4344519;33;20008;-77
2022/01/09 21:55:40;;;;;;;34.08;12.70;;;;;;;;;;4295343;33;20032;-78
2022/01/09 21:58:10;;;;;;;35.38;13.30;;;;;;;;;;4301944;33;20020;-78
2022/01/09 22:00:36;;;;;;;35.67;12.95;;;;;;;;;;4320874;33;20028;-78
2022/01/09 22:03:20;;;;;;;;;;;;;;;;;;4332843;33;20082;-78
2022/01/09 22:05:46;;;;;;;40.60;12.80;;;;;;;;;;4332635;33;19943;-78
2022/01/09 22:11:18;;;;;;;35.08;11.52;;;;;;;;;;4329321;33;19953;-78
2022/01/09 22:13:46;;;;;;;36.58;11.90;;;;;;;;;;4331173;33;20063;-77
2022/01/09 22:16:11;;;;;;;32.50;12.40;;;;;;;;;;4331973;33;20406;-78
2022/01/09 22:18:36;;;;;;;;;;;;;;;;;;4332339;33;20050;-78
2022/01/09 22:21:02;;;;;;;47.16;13.02;;;;;;;;;;4332043;33;19998;-77
2022/01/09 22:23:31;;;;;;;;;;;;;;;;;;4332314;33;20050;-78
2022/01/09 22:26:10;;;;;;;31.83;11.65;;;;;;;;;;4332167;33;19943;-77
2022/01/09 22:29:08;;;;;;;35.33;12.60;;;;;;;;;;4332258;33;20098;-78
2022/01/09 22:31:33;;;;;;;34.53;12.00;;;;;;;;;;4337915;33;20444;-77
2022/01/09 22:33:58;;;;;;;;;;;;;;;;;;4333281;33;20081;-78
2022/01/09 22:36:26;;;;;;;29.48;11.68;;;;;;;;;;4346524;33;19959;-78
2022/01/09 22:38:52;;;;;;;46.53;13.73;;;;;;;;;;4346280;33;20090;-78
2022/01/09 22:41:48;;;;;;;;;;;;;;;;;;;;;
2022/01/09 22:44:53;;;;;;;36.97;12.60;;;;;;;;;;4343776;33;19965;-78
2022/01/09 22:47:22;;;;;;;37.40;12.77;;;;;;;;;;4329648;33;20063;-78
2022/01/09 22:49:50;;;;;;;38.00;13.32;;;;;;;;;;4329307;33;20253;-78
2022/01/09 22:55:38;;;;;;;;;;;;;;;;;;4305509;33;20050;-78
2022/01/09 22:58:04;;;;;;;29.67;12.73;;;;;;;;;;4346892;33;20331;-78
2022/01/09 23:00:29;;;;;;;;;;;;;;;;;;4346431;33;20059;-78
2022/01/09 23:03:59;;;;;;;35.25;13.73;;;;;;;;;;4344960;33;19989;-78
2022/01/09 23:12:13;;;;;;;39.05;13.25;;;;;;;;;;4285998;33;20064;-78
2022/01/09 23:14:41;;;;;;;39.30;16.20;;;;;;;;;;4284358;33;20077;-78
2022/01/09 23:17:07;;;;;;;42.15;16.20;;;;;;;;;;4326418;33;20019;-78
2022/01/09 23:19:32;;;;;;;;;;;;;;;;;;4357355;32;20326;-78
2022/01/09 23:22:29;;;;;;;37.32;16.18;;;;;;;;;;4345637;33;19993;-78
2022/01/09 23:25:40;;;;;;;;;;;;;;;;;;4331686;33;20024;-77
2022/01/09 23:27:43;;;;;;;49.17;16.80;;;;;;;;;;4340093;33;19935;-78
2022/01/09 23:30:34;;;;;;;43.90;15.50;;;;;;;;;;4345512;33;20031;-78
2022/01/09 23:33:14;;;;;;;38.20;16.12;;;;;;;;;;4355922;33;20074;-77
2022/01/09 23:35:58;;;;;;;;;;;;;;;;;;;;;
2022/01/09 23:39:08;;;;;;;36.67;15.20;;;;;;;;;;4345251;33;20024;-78
2022/01/09 23:42:21;;;;;;;44.85;14.82;;;;;;;;;;4300626;33;20084;-78
2022/01/09 23:44:19;;;;;;;48.13;17.90;;;;;;;;;;4322002;33;20155;-78
2022/01/09 23:46:54;;;;;;;;;;;;;;;;;;;;;
